Time;durP1;ratioP1;P1;durP2;ratioP2;P2;SDS_P1;SDS_P2;PMS_P1;PMS_P2;Temp;Humidity;BMP_temperature;BMP_pressure;BME280_temperature;BME280_humidity;BME280_pressure;Samples;Min_cycle;Max_cycle;Signal;HPM_P1;HPM_P2
2021/12/18 00:00:29;;;;;;;43.38;33.85;;;;;;;-0.95;100.00;97300.44;6178927;23;20001;-66
2021/12/18 00:02:55;;;;;;;44.28;35.00;;;;;;;-0.95;100.00;97295.25;6178937;23;20097;-66
2021/12/18 00:05:20;;;;;;;42.83;34.53;;;;;;;-0.90;100.00;97292.56;6178738;23;20345;-65
2021/12/18 00:07:45;;;;;;;45.17;35.42;;;;;;;-1.03;100.00;97286.78;6178976;23;20440;-66
2021/12/18 00:10:11;;;;;;;53.05;38.08;;;;;;;-1.07;100.00;97280.00;6178741;23;20391;-66
2021/12/18 00:12:37;;;;;;;47.53;37.47;;;;;;;-1.08;100.00;97280.88;6178155;23;20066;-66
2021/12/18 00:15:03;;;;;;;53.55;38.05;;;;;;;-1.10;100.00;97277.47;6178759;23;20078;-66
2021/12/18 00:17:28;;;;;;;45.90;35.28;;;;;;;-1.08;100.00;97291.22;6178935;23;20001;-66
2021/12/18 00:19:54;;;;;;;43.28;32.53;;;;;;;-1.06;100.00;97289.44;6178719;23;20020;-66
2021/12/18 00:22:19;;;;;;;42.58;33.35;;;;;;;-1.07;100.00;97291.19;6178951;23;20344;-66
2021/12/18 00:24:44;;;;;;;46.30;36.30;;;;;;;-1.10;100.00;97290.41;6178740;23;20002;-66
2021/12/18 00:27:10;;;;;;;46.95;37.72;;;;;;;-1.10;100.00;97292.97;6178443;23;20348;-66
2021/12/18 00:29:35;;;;;;;48.28;35.20;;;;;;;-0.99;100.00;97292.75;6178529;23;20070;-66
2021/12/18 00:32:01;;;;;;;40.83;32.15;;;;;;;-1.01;100.00;97288.47;6179031;23;20005;-66
2021/12/18 00:34:26;;;;;;;42.25;33.10;;;;;;;-1.03;100.00;97286.78;6178645;23;20344;-66
2021/12/18 00:36:52;;;;;;;41.55;33.08;;;;;;;-0.88;100.00;97286.50;6177856;23;20013;-66
2021/12/18 00:39:17;;;;;;;43.72;35.30;;;;;;;-0.90;100.00;97283.09;6178651;23;20001;-66
2021/12/18 00:44:13;;;;;;;43.33;35.25;;;;;;;-0.92;100.00;97284.84;6178728;23;20399;-66
2021/12/18 00:46:43;;;;;;;45.72;36.08;;;;;;;-0.93;100.00;97277.97;6178465;23;20059;-66
2021/12/18 00:49:16;;;;;;;41.85;33.55;;;;;;;-0.97;100.00;97276.34;6178715;23;20005;-66
2021/12/18 00:51:41;;;;;;;45.13;34.90;;;;;;;-1.04;100.00;97272.16;6178627;23;20001;-66
2021/12/18 00:54:07;;;;;;;48.00;35.35;;;;;;;-1.05;100.00;97268.75;6178805;23;20001;-66
2021/12/18 00:56:33;;;;;;;40.75;34.15;;;;;;;-1.08;100.00;97279.16;6152100;23;20001;-66
2021/12/18 00:58:59;;;;;;;43.88;33.97;;;;;;;-1.08;100.00;97276.56;6178554;23;20084;-66
2021/12/18 01:01:26;;;;;;;44.13;33.95;;;;;;;-1.06;100.00;97276.53;6178698;23;20001;-66
2021/12/18 01:03:53;;;;;;;37.70;29.92;;;;;;;-1.07;100.00;97270.50;6177679;23;20013;-66
2021/12/18 01:06:20;;;;;;;39.00;31.83;;;;;;;-1.08;100.00;97273.97;6178243;23;20013;-66
2021/12/18 01:08:46;;;;;;;38.15;30.98;;;;;;;-1.10;100.00;97269.72;6178448;23;20005;-66
2021/12/18 01:14:45;;;;;;;50.92;34.30;;;;;;;-1.09;100.00;97266.25;6165225;23;20009;-66
2021/12/18 01:22:44;;;;;;;42.53;30.45;;;;;;;-1.05;100.00;97257.53;6177744;23;20399;-66
2021/12/18 01:22:48;;;;;;;42.65;32.55;;;;;;;-1.01;100.00;97265.22;6178589;23;20058;-66
2021/12/18 01:25:15;;;;;;;34.25;28.33;;;;;;;-1.01;100.00;97269.50;6177629;23;20027;-66
2021/12/18 01:27:42;;;;;;;32.28;27.38;;;;;;;-0.99;100.00;97259.16;6177986;23;20001;-66
2021/12/18 01:30:09;;;;;;;34.97;28.17;;;;;;;-1.00;100.00;97266.03;6178179;23;20005;-65
2021/12/18 01:32:34;;;;;;;45.22;29.98;;;;;;;-0.97;100.00;97265.13;6178893;23;20179;-66
2021/12/18 01:35:01;;;;;;;43.38;31.00;;;;;;;-0.96;100.00;97262.53;6178626;23;20005;-66
2021/12/18 01:37:27;;;;;;;40.83;30.17;;;;;;;-0.95;100.00;97264.25;6178360;23;20456;-65
2021/12/18 01:39:53;;;;;;;38.97;29.92;;;;;;;-0.97;100.00;97259.97;6178516;23;20080;-65
2021/12/18 01:52:53;;;;;;;32.45;26.27;;;;;;;-0.87;99.62;97251.16;6178112;23;20012;-66
2021/12/18 01:55:20;;;;;;;32.50;28.45;;;;;;;-0.93;99.97;97252.13;6151363;23;20009;-66
2021/12/18 01:57:45;;;;;;;32.75;27.10;;;;;;;-0.93;100.00;97252.13;6177069;23;20005;-66
2021/12/18 02:00:16;;;;;;;30.98;25.40;;;;;;;-0.77;99.79;97247.47;6177848;23;20395;-66
2021/12/18 02:02:42;;;;;;;32.17;25.52;;;;;;;-0.82;98.88;97245.84;6177387;23;20017;-65
2021/12/18 02:05:07;;;;;;;35.33;27.63;;;;;;;-0.85;99.43;97253.69;6177045;23;20012;-66
2021/12/18 02:07:33;;;;;;;33.05;25.70;;;;;;;-0.81;99.58;97250.13;6176247;23;20073;-66
2021/12/18 02:10:09;;;;;;;30.95;24.90;;;;;;;-0.92;99.53;97246.06;6150618;23;20001;-66
2021/12/18 02:13:24;;;;;;;36.33;27.15;;;;;;;-0.96;99.84;97249.59;6177942;23;20705;-66
2021/12/18 02:21:06;;;;;;;40.30;31.42;;;;;;;-1.08;100.00;97231.75;6177745;23;20028;-66
2021/12/18 02:23:33;;;;;;;45.60;33.70;;;;;;;-1.07;100.00;97239.50;6177686;23;20094;-66
2021/12/18 02:25:58;;;;;;;40.72;32.05;;;;;;;-1.10;100.00;97229.22;6177937;23;20005;-66
2021/12/18 02:28:26;;;;;;;43.72;33.70;;;;;;;-1.14;100.00;97222.38;6177792;23;20011;-65
2021/12/18 02:30:54;;;;;;;47.30;33.63;;;;;;;-1.08;100.00;97224.88;6177961;23;20009;-66
2021/12/18 02:33:21;;;;;;;43.33;32.08;;;;;;;-0.94;100.00;97221.97;6177365;23;20012;-66
2021/12/18 02:35:52;;;;;;;43.92;35.70;;;;;;;-1.05;100.00;97217.03;6178633;23;20025;-66
2021/12/18 02:38:33;;;;;;;43.83;33.15;;;;;;;-1.04;100.00;97212.72;6179266;23;20054;-66
2021/12/18 02:43:34;;;;;;;40.30;32.45;;;;;;;-1.16;100.00;97209.50;6178914;23;20326;-66
2021/12/18 02:46:06;;;;;;;40.40;32.72;;;;;;;-1.13;100.00;97200.00;6178834;23;20032;-66
2021/12/18 02:48:33;;;;;;;40.15;31.35;;;;;;;-1.17;100.00;97201.78;6178968;23;20005;-66
2021/12/18 02:50:58;;;;;;;43.40;35.33;;;;;;;-1.25;100.00;97198.53;6179318;23;20001;-65
2021/12/18 02:53:26;;;;;;;41.83;32.92;;;;;;;-1.16;100.00;97193.13;6179222;23;20019;-66
2021/12/18 02:55:57;;;;;;;44.03;34.47;;;;;;;-1.25;100.00;97196.75;6179342;23;20017;-65
2021/12/18 02:58:23;;;;;;;39.10;31.75;;;;;;;-1.18;100.00;97200.94;6179200;23;20340;-65
2021/12/18 03:00:49;;;;;;;41.72;32.97;;;;;;;-1.23;100.00;97201.91;6179242;23;20084;-65
2021/12/18 03:03:15;;;;;;;42.10;33.53;;;;;;;-1.22;100.00;97198.44;6179347;23;20017;-65
2021/12/18 03:05:51;;;;;;;41.67;31.95;;;;;;;-1.25;100.00;97203.69;6179174;23;20550;-66
2021/12/18 03:08:31;;;;;;;37.05;30.65;;;;;;;-1.14;100.00;97200.88;6178669;23;20341;-65
2021/12/18 03:20:18;;;;;;;37.53;31.20;;;;;;;-1.23;100.00;97179.50;6178684;23;20028;-65
2021/12/18 03:24:53;;;;;;;42.17;33.95;;;;;;;-1.20;100.00;97171.69;6178871;23;20149;-65
2021/12/18 03:27:19;;;;;;;43.45;32.90;;;;;;;-1.22;100.00;97168.28;6177493;23;20061;-65
2021/12/18 03:29:45;;;;;;;42.03;31.88;;;;;;;-1.19;100.00;97173.41;6177318;23;20072;-65
2021/12/18 03:32:10;;;;;;;47.60;33.85;;;;;;;-1.21;100.00;97182.91;6178157;22;20005;-65
2021/12/18 03:34:36;;;;;;;47.85;36.05;;;;;;;-1.16;100.00;97181.09;6178331;23;20010;-65
2021/12/18 03:37:02;;;;;;;45.10;33.33;;;;;;;-1.24;100.00;97177.78;6178292;23;20454;-65
2021/12/18 03:39:28;;;;;;;46.60;35.78;;;;;;;-1.32;100.00;97170.22;6178156;23;20050;-65
2021/12/18 03:41:53;;;;;;;46.78;35.72;;;;;;;-1.34;100.00;97168.53;6178238;23;20013;-65
2021/12/18 03:44:19;;;;;;;48.35;36.25;;;;;;;-1.33;100.00;97165.09;6178138;23;20005;-65
2021/12/18 03:46:44;;;;;;;47.72;34.95;;;;;;;-1.19;100.00;97163.06;6178063;23;20089;-65
2021/12/18 03:49:10;;;;;;;43.65;33.03;;;;;;;-1.10;100.00;97158.56;6178058;23;20065;-65
2021/12/18 03:51:35;;;;;;;39.85;31.77;;;;;;;-1.06;100.00;97150.72;6178228;23;20001;-64
2021/12/18 03:54:02;;;;;;;36.83;29.10;;;;;;;-1.06;100.00;97147.25;6178354;23;20001;-65
2021/12/18 03:56:28;;;;;;;40.78;30.55;;;;;;;-1.08;100.00;97149.03;6151299;23;19998;-65
2021/12/18 03:58:53;;;;;;;38.42;29.80;;;;;;;-1.17;100.00;97145.78;6177649;23;20009;-64
2021/12/18 04:01:18;;;;;;;39.33;32.03;;;;;;;-1.25;100.00;97152.84;6177969;23;20345;-65
2021/12/18 04:03:44;;;;;;;38.28;30.83;;;;;;;-1.19;100.00;97152.72;6177937;23;20149;-65
2021/12/18 04:06:09;;;;;;;42.00;31.88;;;;;;;-1.10;100.00;97150.81;6151343;23;20005;-65
2021/12/18 04:08:35;;;;;;;40.67;33.72;;;;;;;-1.27;100.00;97138.25;6178938;23;20009;-65
2021/12/18 04:11:00;;;;;;;39.63;31.55;;;;;;;-1.18;100.00;97144.09;6178703;23;20012;-65
2021/12/18 04:13:25;;;;;;;41.42;32.67;;;;;;;-1.21;100.00;97156.22;6178324;23;20005;-65
2021/12/18 04:15:51;;;;;;;40.83;31.80;;;;;;;-1.23;100.00;97150.22;6178123;23;20028;-65
2021/12/18 04:18:16;;;;;;;42.35;32.95;;;;;;;-1.25;100.00;97158.00;6178666;23;20058;-65
2021/12/18 04:20:42;;;;;;;38.38;31.85;;;;;;;-1.29;100.00;97151.19;6177878;23;20001;-65
2021/12/18 04:23:07;;;;;;;42.00;33.97;;;;;;;-1.19;100.00;97157.03;6178892;23;20040;-65
2021/12/18 04:25:33;;;;;;;41.40;32.95;;;;;;;-1.13;100.00;97156.03;6178533;23;20009;-65
2021/12/18 04:27:58;;;;;;;42.13;32.42;;;;;;;-1.26;100.00;97152.88;6178602;23;20001;-65
2021/12/18 04:30:23;;;;;;;41.10;32.33;;;;;;;-1.17;100.00;97155.25;6152523;23;20108;-65
2021/12/18 04:32:49;;;;;;;44.72;34.03;;;;;;;-1.22;100.00;97152.75;6178567;23;20005;-65
2021/12/18 04:35:14;;;;;;;41.67;34.30;;;;;;;-1.30;100.00;97154.66;6178837;23;20009;-65
2021/12/18 04:37:40;;;;;;;41.88;33.83;;;;;;;-1.34;100.00;97155.63;6178870;23;20533;-65
2021/12/18 04:40:07;;;;;;;42.67;33.75;;;;;;;-1.37;100.00;97153.94;6178852;23;20079;-65
2021/12/18 04:42:32;;;;;;;44.67;34.38;;;;;;;-1.35;100.00;97151.34;6178705;23;20005;-65
2021/12/18 04:44:58;;;;;;;50.05;35.75;;;;;;;-1.38;100.00;97149.66;6178750;23;20053;-65
2021/12/18 04:47:23;;;;;;;48.35;35.75;;;;;;;-1.37;100.00;97164.28;6178554;23;20008;-65
2021/12/18 04:49:49;;;;;;;43.13;33.88;;;;;;;-1.32;100.00;97159.03;6179034;23;20001;-65
2021/12/18 04:52:14;;;;;;;46.55;34.05;;;;;;;-1.37;100.00;97151.38;6178742;23;20010;-65
2021/12/18 04:54:39;;;;;;;47.45;33.30;;;;;;;-1.39;100.00;97150.53;6179127;23;20033;-65
2021/12/18 04:57:05;;;;;;;44.20;34.78;;;;;;;-1.43;100.00;97159.25;6179037;22;20013;-65
2021/12/18 04:59:30;;;;;;;43.92;32.55;;;;;;;-1.41;100.00;97154.06;6177959;23;20001;-65
2021/12/18 05:01:56;;;;;;;44.47;33.30;;;;;;;-1.42;100.00;97154.94;6178754;23;20008;-65
2021/12/18 05:04:21;;;;;;;49.40;37.15;;;;;;;-1.45;100.00;97151.53;6178613;23;20021;-64
2021/12/18 05:06:48;;;;;;;42.97;34.30;;;;;;;-1.43;100.00;97150.66;6152125;22;20020;-65
2021/12/18 05:09:16;;;;;;;44.67;33.45;;;;;;;-1.42;100.00;97154.94;6178515;23;20040;-65
2021/12/18 05:11:43;;;;;;;40.72;30.98;;;;;;;-1.37;100.00;97156.53;6178463;23;20460;-65
2021/12/18 05:14:08;;;;;;;35.03;29.15;;;;;;;-1.35;100.00;97164.25;6178404;23;20008;-64
2021/12/18 05:16:34;;;;;;;38.38;28.88;;;;;;;-1.37;100.00;97166.03;6178137;23;20523;-64
2021/12/18 05:19:00;;;;;;;36.25;29.15;;;;;;;-1.36;100.00;97163.41;6152202;23;20001;-65
2021/12/18 05:21:26;;;;;;;43.33;30.30;;;;;;;-1.36;100.00;97168.56;6151960;23;20005;-65
2021/12/18 05:23:51;;;;;;;39.95;31.02;;;;;;;-1.38;100.00;97157.41;6178481;23;20092;-65
2021/12/18 05:26:17;;;;;;;46.78;34.55;;;;;;;-1.37;100.00;97160.88;6178343;23;20005;-64
2021/12/18 05:28:42;;;;;;;41.13;32.70;;;;;;;-1.41;100.00;97154.91;6178361;23;20001;-65
2021/12/18 05:31:09;;;;;;;42.63;31.55;;;;;;;-1.38;100.00;97148.81;6151778;23;20074;-64
2021/12/18 05:33:35;;;;;;;37.58;30.25;;;;;;;-1.38;100.00;97152.25;6178382;23;20014;-65
2021/12/18 05:36:03;;;;;;;40.20;32.08;;;;;;;-1.40;100.00;97148.84;6178289;23;20005;-65
2021/12/18 05:38:28;;;;;;;45.03;30.40;;;;;;;-1.39;100.00;97147.97;6152034;22;20037;-65
2021/12/18 05:40:54;;;;;;;40.28;30.15;;;;;;;-1.39;100.00;97153.13;6178434;23;20031;-64
2021/12/18 05:43:19;;;;;;;34.13;27.80;;;;;;;-1.29;100.00;97153.78;6177885;23;20005;-64
2021/12/18 05:45:46;;;;;;;38.08;28.30;;;;;;;-1.32;100.00;97146.97;6178114;23;20009;-65
2021/12/18 05:48:12;;;;;;;36.97;29.52;;;;;;;-1.32;100.00;97146.97;6178282;23;20002;-64
2021/12/18 05:50:37;;;;;;;38.80;29.73;;;;;;;-1.28;100.00;97149.47;6178279;23;20008;-65
2021/12/18 05:53:03;;;;;;;42.63;30.85;;;;;;;-1.28;100.00;97147.72;6177683;23;20352;-65
2021/12/18 05:55:30;;;;;;;37.05;28.98;;;;;;;-1.32;100.00;97154.72;6178382;23;20051;-65
2021/12/18 05:57:56;;;;;;;36.05;27.70;;;;;;;-1.32;100.00;97149.56;6178727;22;20050;-65
2021/12/18 06:00:22;;;;;;;37.70;28.02;;;;;;;-1.34;100.00;97146.13;6178207;23;20001;-65
2021/12/18 06:02:48;;;;;;;33.60;26.58;;;;;;;-1.28;100.00;97147.72;6178368;23;20013;-65
2021/12/18 06:05:13;;;;;;;29.17;24.25;;;;;;;-1.20;99.83;97142.41;6178485;23;20341;-65
2021/12/18 06:07:53;;;;;;;27.90;24.02;;;;;;;-1.34;98.82;97138.38;6178457;23;20016;-64
2021/12/18 06:10:20;;;;;;;29.73;23.90;;;;;;;-1.32;99.42;97140.94;6178346;23;20563;-64
2021/12/18 06:12:45;;;;;;;30.85;23.75;;;;;;;-1.39;99.29;97147.97;6179557;23;20035;-64
2021/12/18 06:15:10;;;;;;;27.02;24.00;;;;;;;-1.40;99.52;97141.09;6179894;23;20001;-65
2021/12/18 06:17:36;;;;;;;33.17;26.73;;;;;;;-1.42;99.51;97142.03;6179268;23;20468;-65
2021/12/18 06:20:02;;;;;;;32.47;25.75;;;;;;;-1.47;100.00;97137.78;6179827;23;20441;-64
2021/12/18 06:22:27;;;;;;;31.58;24.45;;;;;;;-1.43;100.00;97143.75;6179529;23;20448;-64
2021/12/18 06:24:53;;;;;;;28.38;23.77;;;;;;;-1.31;99.22;97135.75;6179498;23;20012;-64
2021/12/18 06:27:18;;;;;;;27.92;23.80;;;;;;;-1.33;99.24;97147.00;6179359;23;20092;-64
2021/12/18 06:29:44;;;;;;;28.10;25.02;;;;;;;-1.34;99.03;97143.53;6179857;23;20009;-64
2021/12/18 06:32:09;;;;;;;29.67;25.00;;;;;;;-1.42;99.48;97145.44;6179663;23;20000;-65
2021/12/18 06:34:35;;;;;;;34.05;27.33;;;;;;;-1.46;100.00;97146.41;6179762;23;20005;-64
2021/12/18 06:37:01;;;;;;;39.35;30.27;;;;;;;-1.52;100.00;97144.78;6179615;23;20009;-64
2021/12/18 06:39:26;;;;;;;39.75;29.65;;;;;;;-1.54;100.00;97145.72;6179393;23;20001;-64
2021/12/18 06:41:53;;;;;;;43.00;31.23;;;;;;;-1.50;100.00;97140.44;6179409;23;20037;-64
2021/12/18 06:44:19;;;;;;;43.80;33.00;;;;;;;-1.49;100.00;97149.88;6179849;23;20002;-64
2021/12/18 06:46:45;;;;;;;38.38;30.92;;;;;;;-1.54;100.00;97141.38;6179667;23;20020;-65
2021/12/18 06:49:10;;;;;;;43.92;32.58;;;;;;;-1.61;100.00;97140.66;6179750;23;20345;-64
2021/12/18 06:51:36;;;;;;;40.35;29.88;;;;;;;-1.50;100.00;97144.78;6179910;23;20025;-65
2021/12/18 06:54:02;;;;;;;45.38;32.97;;;;;;;-1.56;100.00;97144.88;6180087;23;20009;-64
2021/12/18 06:56:27;;;;;;;40.78;32.80;;;;;;;-1.61;100.00;97147.56;6179870;23;20007;-64
2021/12/18 06:58:52;;;;;;;38.63;31.83;;;;;;;-1.48;100.00;97145.59;6179425;23;20079;-65
2021/12/18 07:01:18;;;;;;;52.00;38.45;;;;;;;-1.52;100.00;97144.78;6179749;23;19997;-64
2021/12/18 07:03:43;;;;;;;72.75;49.08;;;;;;;-1.41;100.00;97148.91;6179079;23;20024;-64
2021/12/18 07:06:08;;;;;;;48.25;36.25;;;;;;;-1.50;100.00;97144.78;6179106;23;20070;-64
2021/12/18 07:08:34;;;;;;;39.35;31.17;;;;;;;-1.49;100.00;97144.72;6179506;23;20367;-64
2021/12/18 07:10:59;;;;;;;37.63;31.00;;;;;;;-1.51;100.00;97146.50;6177753;23;20076;-64
2021/12/18 07:13:27;;;;;;;38.33;31.00;;;;;;;-1.51;100.00;97138.75;6179251;23;20004;-64
2021/12/18 07:15:53;;;;;;;35.20;27.92;;;;;;;-1.43;100.00;97135.16;6179346;23;20082;-65
2021/12/18 07:18:18;;;;;;;30.83;25.80;;;;;;;-1.40;100.00;97143.69;6179272;23;20441;-64
2021/12/18 07:20:43;;;;;;;29.58;24.45;;;;;;;-1.44;98.96;97136.88;6179316;23;20095;-64
2021/12/18 07:23:09;;;;;;;26.95;22.98;;;;;;;-1.51;99.50;97143.91;6178241;23;20080;-64
2021/12/18 07:25:34;;;;;;;33.97;25.17;;;;;;;-1.50;99.66;97143.03;6152629;23;20016;-64
2021/12/18 07:27:59;;;;;;;33.47;27.90;;;;;;;-1.52;99.97;97149.13;6177086;23;20155;-64
2021/12/18 07:30:25;;;;;;;31.38;24.48;;;;;;;-1.43;99.90;97145.50;6178004;23;20062;-64
2021/12/18 07:32:50;;;;;;;28.80;23.40;;;;;;;-1.41;98.42;97148.91;6178267;23;20040;-64
2021/12/18 07:35:16;;;;;;;34.60;25.77;;;;;;;-1.54;98.84;97151.72;6177992;23;20004;-68
2021/12/18 07:37:42;;;;;;;39.13;29.05;;;;;;;-1.49;99.22;97159.38;6177734;23;20375;-62
2021/12/18 07:40:09;;;;;;;40.78;30.85;;;;;;;-1.51;100.00;97149.06;6178536;23;20009;-64
2021/12/18 07:42:34;;;;;;;44.20;34.75;;;;;;;-1.55;100.00;97160.34;6178796;23;20100;-63
2021/12/18 07:45:01;;;;;;;44.47;34.13;;;;;;;-1.44;100.00;97157.56;6178219;23;20039;-64
2021/12/18 07:47:26;;;;;;;42.30;34.53;;;;;;;-1.49;100.00;97156.81;6177705;23;20005;-63
2021/12/18 07:49:52;;;;;;;40.85;33.63;;;;;;;-1.56;100.00;97152.63;6178133;23;20366;-63
2021/12/18 07:52:17;;;;;;;49.83;38.55;;;;;;;-1.58;100.00;97150.94;6178199;23;20001;-63
2021/12/18 07:54:43;;;;;;;63.08;43.58;;;;;;;-1.58;100.00;97157.84;6177969;23;20345;-64
2021/12/18 07:57:08;;;;;;;65.97;47.35;;;;;;;-1.58;100.00;97160.44;6177741;23;20013;-63
2021/12/18 07:59:34;;;;;;;53.90;42.03;;;;;;;-1.56;100.00;97158.66;6177655;23;20013;-63
2021/12/18 08:02:00;;;;;;;51.92;39.63;;;;;;;-1.57;100.00;97156.97;6151205;23;20053;-63
2021/12/18 08:04:26;;;;;;;58.53;42.50;;;;;;;-1.55;100.00;97155.19;6177590;23;20118;-62
2021/12/18 08:06:51;;;;;;;45.90;34.80;;;;;;;-1.52;100.00;97155.13;6177189;23;20149;-63
2021/12/18 08:09:17;;;;;;;48.47;36.30;;;;;;;-1.47;100.00;97158.47;6177485;23;20008;-63
2021/12/18 08:11:42;;;;;;;42.85;34.25;;;;;;;-1.52;100.00;97157.72;6175611;23;20033;-63
2021/12/18 08:14:08;;;;;;;43.80;35.35;;;;;;;-1.53;100.00;97156.00;6178935;23;20059;-63
2021/12/18 08:16:33;;;;;;;38.63;32.47;;;;;;;-1.54;100.00;97154.31;6178683;23;20005;-64
2021/12/18 08:18:59;;;;;;;39.85;31.92;;;;;;;-1.52;100.00;97152.53;6178946;23;20361;-60
2021/12/18 08:21:24;;;;;;;41.10;32.90;;;;;;;-1.50;100.00;97153.34;6178935;23;20006;-60
2021/12/18 08:23:49;;;;;;;42.35;34.88;;;;;;;-1.46;100.00;97157.56;6179194;23;20098;-61
2021/12/18 08:26:15;;;;;;;41.53;32.13;;;;;;;-1.38;100.00;97161.75;6176496;23;20005;-60
2021/12/18 08:28:40;;;;;;;37.42;29.35;;;;;;;-1.36;100.00;97158.22;6176665;23;20009;-59
2021/12/18 08:31:06;;;;;;;38.58;31.33;;;;;;;-1.33;99.83;97149.56;6175294;23;20028;-61
2021/12/18 08:33:32;;;;;;;39.10;30.55;;;;;;;-1.32;100.00;97156.44;6177387;23;20005;-61
2021/12/18 08:35:57;;;;;;;38.95;31.77;;;;;;;-1.28;99.79;97152.06;6177513;23;20467;-61
2021/12/18 08:38:22;;;;;;;40.08;30.08;;;;;;;-1.24;99.59;97153.69;6178114;23;20001;-55
2021/12/18 08:40:50;;;;;;;36.40;30.10;;;;;;;-1.17;99.44;97166.47;6177886;23;20009;-61
2021/12/18 08:43:15;;;;;;;33.50;28.00;;;;;;;-1.01;98.59;97160.94;6151791;23;20012;-61
2021/12/18 08:45:40;;;;;;;25.83;23.08;;;;;;;-1.01;96.71;97159.22;6177600;23;20005;-62
2021/12/18 08:48:06;;;;;;;29.35;24.27;;;;;;;-1.12;96.52;97162.91;6176987;23;20032;-62
2021/12/18 08:50:31;;;;;;;33.70;27.92;;;;;;;-1.09;97.34;97161.13;6177609;23;20006;-60
2021/12/18 08:52:57;;;;;;;36.28;29.27;;;;;;;-1.08;97.22;97169.72;6177874;23;20001;-61
2021/12/18 08:55:23;;;;;;;38.05;33.78;;;;;;;-0.98;97.32;97166.06;6176764;23;20005;-62
2021/12/18 08:57:50;;;;;;;37.63;29.88;;;;;;;-0.87;96.39;97169.22;6175565;23;20005;-62
2021/12/18 09:00:19;;;;;;;37.78;29.85;;;;;;;-0.96;96.59;97166.88;6178718;23;20085;-65
2021/12/18 09:02:47;;;;;;;39.70;31.45;;;;;;;-0.88;96.51;97172.69;6177590;23;20009;-62
2021/12/18 09:05:13;;;;;;;36.17;30.50;;;;;;;-0.91;96.28;97172.78;6177687;23;20326;-63
2021/12/18 09:07:39;;;;;;;41.33;32.17;;;;;;;-0.69;95.98;97174.88;6176590;23;20009;-65
2021/12/18 09:10:06;;;;;;;38.97;31.38;;;;;;;-0.69;96.21;97180.03;6178659;23;20012;-62
2021/12/18 09:12:32;;;;;;;41.33;31.60;;;;;;;-0.73;96.03;97183.59;6178653;23;20011;-62
2021/12/18 09:14:58;;;;;;;37.60;31.35;;;;;;;-0.81;96.31;97185.47;6178850;23;20005;-63
2021/12/18 09:17:23;;;;;;;38.42;29.27;;;;;;;-0.72;96.35;97195.63;6178668;23;20012;-62
2021/12/18 09:19:50;;;;;;;48.72;35.80;;;;;;;-0.64;96.40;97191.13;6178984;23;20110;-62
2021/12/18 09:22:16;;;;;;;42.25;33.83;;;;;;;-0.76;96.86;97200.03;6177157;23;20108;-63
2021/12/18 09:24:41;;;;;;;44.35;33.45;;;;;;;-0.67;96.27;97192.91;6173818;23;20429;-62
2021/12/18 09:27:07;;;;;;;40.25;33.70;;;;;;;-0.60;96.28;97192.75;6177058;23;20009;-62
2021/12/18 09:29:33;;;;;;;40.42;31.00;;;;;;;-0.65;96.11;97194.59;6177241;22;20016;-62
2021/12/18 09:31:59;;;;;;;40.60;31.77;;;;;;;-0.62;95.86;97194.53;6174932;23;20004;-62
2021/12/18 09:34:27;;;;;;;35.03;29.20;;;;;;;-0.67;95.70;97191.19;6177515;23;20100;-62
2021/12/18 09:36:52;;;;;;;40.42;31.55;;;;;;;-0.62;96.04;97198.88;6176027;23;20005;-61
2021/12/18 09:39:18;;;;;;;38.35;32.95;;;;;;;-0.65;96.38;97201.53;6178515;23;20118;-62
2021/12/18 09:41:48;;;;;;;42.20;35.20;;;;;;;-0.60;96.47;97197.91;6177403;23;20005;-62
2021/12/18 09:44:14;;;;;;;42.92;33.97;;;;;;;-0.50;96.33;97195.13;6178127;23;20021;-63
2021/12/18 09:46:41;;;;;;;36.30;29.65;;;;;;;-0.44;96.13;97201.03;6178414;23;20074;-64
2021/12/18 09:49:07;;;;;;;32.60;26.40;;;;;;;-0.36;94.79;97200.81;6150794;23;20066;-63
2021/12/18 09:51:33;;;;;;;31.35;26.45;;;;;;;-0.43;94.32;97199.25;6150527;23;20004;-64
2021/12/18 09:53:58;;;;;;;28.77;25.25;;;;;;;-0.40;94.42;97196.59;6179232;23;20321;-62
2021/12/18 09:56:25;;;;;;;39.75;28.23;;;;;;;-0.37;94.40;97204.28;6179378;23;20314;-63
2021/12/18 09:58:51;;;;;;;34.85;27.65;;;;;;;-0.38;94.79;97200.00;6179169;23;20009;-62
2021/12/18 10:01:16;;;;;;;37.38;28.85;;;;;;;-0.17;94.13;97195.19;6179749;23;20456;-63
2021/12/18 10:03:52;;;;;;;31.58;27.40;;;;;;;-0.16;93.60;97187.38;6179137;23;20037;-62
2021/12/18 10:06:43;;;;;;;34.75;29.08;;;;;;;-0.24;93.49;97189.28;6179504;23;20420;-64
2021/12/18 10:09:17;;;;;;;38.55;30.05;;;;;;;-0.10;93.47;97182.94;6179191;23;20001;-63
2021/12/18 10:11:48;;;;;;;33.42;27.92;;;;;;;-0.15;93.19;97183.03;6178331;23;20031;-65
2021/12/18 10:14:15;;;;;;;29.13;26.08;;;;;;;-0.12;92.99;97179.53;6179962;22;20345;-64
2021/12/18 10:16:47;;;;;;;31.23;25.02;;;;;;;-0.03;92.51;97176.69;6178650;23;20429;-65
2021/12/18 10:19:28;;;;;;;30.10;24.85;;;;;;;0.01;92.31;97173.16;6178981;23;20001;-65
2021/12/18 10:21:58;;;;;;;33.25;28.00;;;;;;;0.20;91.48;97173.50;6178939;23;20089;-65
2021/12/18 10:24:24;;;;;;;36.38;28.33;;;;;;;0.25;91.21;97165.63;6178212;23;20005;-65
2021/12/18 10:26:50;;;;;;;36.03;28.83;;;;;;;0.28;89.99;97166.38;6177860;23;20040;-63
2021/12/18 10:29:35;;;;;;;41.33;30.65;;;;;;;0.30;90.32;97162.88;6179171;23;20001;-65
2021/12/18 10:32:21;;;;;;;37.45;31.52;;;;;;;0.24;89.90;97156.16;6179699;23;20020;-65
2021/12/18 10:34:55;;;;;;;26.77;21.92;;;;;;;0.23;89.82;97157.03;6179223;23;20005;-64
2021/12/18 10:37:24;;;;;;;27.23;22.05;;;;;;;0.30;88.84;97153.38;6179516;23;20009;-65
2021/12/18 10:39:50;;;;;;;25.70;22.17;;;;;;;0.35;88.60;97156.69;6179443;23;20009;-63
2021/12/18 10:42:29;;;;;;;27.90;24.25;;;;;;;0.43;88.35;97154.72;6179058;23;20016;-63
2021/12/18 10:44:54;;;;;;;25.70;21.88;;;;;;;0.54;87.87;97151.81;6178755;23;20456;-66
2021/12/18 10:47:20;;;;;;;27.10;22.08;;;;;;;0.59;88.09;97148.28;6178735;23;20005;-63
2021/12/18 10:49:45;;;;;;;35.67;28.15;;;;;;;0.65;87.58;97148.06;6178790;23;20341;-63
2021/12/18 10:52:11;;;;;;;29.15;24.50;;;;;;;0.60;87.06;97152.56;6176963;23;20033;-62
2021/12/18 10:54:36;;;;;;;28.98;25.42;;;;;;;0.59;88.01;97145.69;6178005;23;20008;-64
2021/12/18 10:57:02;;;;;;;27.70;24.63;;;;;;;0.61;87.85;97146.47;6178983;23;20012;-63
2021/12/18 10:59:34;;;;;;;29.20;24.20;;;;;;;0.62;86.60;97149.00;6179169;23;20088;-62
2021/12/18 11:02:05;;;;;;;32.05;27.05;;;;;;;0.64;88.00;97148.97;6178974;23;20001;-63
2021/12/18 11:04:40;;;;;;;30.58;24.95;;;;;;;0.66;87.03;97154.97;6177911;23;20386;-63
2021/12/18 11:07:22;;;;;;;33.35;27.70;;;;;;;0.66;87.57;97145.47;6177757;23;20084;-63
2021/12/18 11:10:18;;;;;;;128.57;91.10;;;;;;;0.70;87.83;97152.25;6178096;23;20005;-62
2021/12/18 11:15:29;;;;;;;75.90;56.92;;;;;;;0.89;88.54;97148.25;6178278;23;20605;-62
2021/12/18 11:17:54;;;;;;;63.20;49.17;;;;;;;0.92;88.82;97150.75;6178074;23;20027;-62
2021/12/18 11:20:20;;;;;;;45.45;37.92;;;;;;;1.01;87.90;97145.28;6177963;23;20425;-63
2021/12/18 11:22:48;;;;;;;32.97;28.55;;;;;;;0.98;88.00;97150.53;6178175;23;20537;-62
2021/12/18 11:25:14;;;;;;;39.65;33.03;;;;;;;1.00;88.82;97153.97;6178830;23;20009;-61
2021/12/18 11:27:39;;;;;;;38.20;33.00;;;;;;;1.03;88.16;97153.88;6176539;23;20019;-62
2021/12/18 11:30:14;;;;;;;36.85;29.48;;;;;;;1.04;88.15;97149.50;6178736;23;20005;-61
2021/12/18 11:32:45;;;;;;;35.25;31.45;;;;;;;1.09;88.24;97142.44;6177738;23;20030;-62
2021/12/18 11:35:14;;;;;;;37.10;30.52;;;;;;;1.19;87.34;97138.66;6179155;23;20444;-63
2021/12/18 11:37:45;;;;;;;35.03;29.55;;;;;;;1.10;87.72;97146.72;6178491;23;20016;-62
2021/12/18 11:40:14;;;;;;;40.95;33.42;;;;;;;1.08;87.43;97151.09;6179378;23;20130;-61
2021/12/18 11:42:40;;;;;;;32.30;26.73;;;;;;;1.07;87.22;97145.09;6179141;23;20146;-62
2021/12/18 11:45:06;;;;;;;24.60;22.02;;;;;;;1.04;85.57;97155.56;6176986;23;20452;-62
2021/12/18 11:47:33;;;;;;;26.60;23.60;;;;;;;1.04;85.72;97159.88;6176486;23;20005;-62
2021/12/18 11:50:02;;;;;;;28.70;24.10;;;;;;;1.08;85.92;97151.09;6179821;23;20005;-62
2021/12/18 11:52:28;;;;;;;26.95;23.52;;;;;;;1.04;86.05;97154.69;6178804;23;20390;-61
2021/12/18 11:54:59;;;;;;;27.42;24.52;;;;;;;1.04;86.22;97155.56;6176464;23;20321;-63